Terminal Aerodrome Forecast
Issued by NWS

Home | Current Version | Previous Version | Graphics & Text | Print | Product List | Glossary On
Versions: 1 2 3 4 5 6 7 8 9 10 11 12 13
000
FTUS43 KIWX 171100
TAFSBN
TAF
KSBN 171120Z 1712/1812 13012KT P6SM SCT100 BKN250
     FM171600 20013G20KT P6SM FEW060 BKN150
     FM180000 24007KT P6SM OVC100
     FM180700 VRB04KT P6SM VCSH BKN050 OVC100=

USA.gov is the U.S. government's official web portal to all federal, state and local government web resources and services.